MI55 weather

Zeitler Airport
Merril, Michigan, United States

Public forecast

Using degrees Fahrenheit for public forecast. Weather courtesy of forecast.io.

METAR (pilot weather report)

Closest report is Jack Barstow Airport, 11.4 nm (21.1 km) NNE. Retrieved 2019/09/18 01:36 UTC (23 minutes ago):

KIKW 180136Z AUTO 00000KT 10SM CLR 18/16 A3018 RMK AO2 T01800159

TAF (pilot weather forecast)

Forecast is more than 12 hours old.

Closest forecast is MBS International Airport, 12.7 nm (23.5 km) ENE. Retrieved 2019/09/17 00:34 UTC (1 day ago):

TAF KMBS 172332Z 1800/1824 07005KT P6SM SCT250 FM180800 09003KT P6SM SCT100 BKN250 FM181300 13007KT P6SM BKN250 FM182200 16007KT P6SM SCT250